Date,TemperatureHighF,TemperatureAvgF,TemperatureLowF,DewpointHighF,DewpointAvgF,DewpointLowF,HumidityHigh,HumidityAvg,HumidityLow,PressureMaxIn,PressureMinIn,WindSpeedMaxMPH,WindSpeedAvgMPH,GustSpeedMaxMPH,PrecipitationSumIn
2013-1-1,50.2,48.7,46.2,49.0,43.5,31.5,98,83,52,30.15,29.93,9,2,12,0.55
2013-1-2,54.8,49.5,45.6,51.8,47.9,43.1,98,94,84,30.14,29.87,3,0,4,0.08
2013-1-3,45.6,42.1,32.5,43.1,40.8,31.2,97,95,91,30.29,30.09,2,0,3,0.01
2013-1-4,53.1,39.1,26.2,35.8,29.1,20.3,96,70,44,30.36,30.24,9,1,13,0.00
2013-1-5,51.1,38.1,23.8,36.3,27.3,21.0,90,67,41,30.41,30.24,5,0,6,0.00
2013-1-6,53.6,45.6,39.0,43.0,38.2,32.1,87,75,66,30.25,30.05,9,2,15,0.00
2013-1-7,53.0,40.6,27.6,35.1,31.5,25.3,92,72,47,30.43,30.21,3,0,6,0.00
2013-1-8,52.2,42.2,31.4,42.0,35.9,28.3,90,79,64,30.46,30.35,2,0,5,0.00
2013-1-9,64.6,52.3,38.8,53.4,46.8,36.2,92,82,64,30.46,30.36,3,0,5,0.00
2013-1-10,60.0,51.3,48.5,54.2,49.5,46.9,96,94,81,30.46,30.40,3,0,5,0.00
2013-1-11,61.2,55.6,51.2,60.9,54.9,50.7,100,97,95,30.30,30.13,3,0,7,0.10
2013-1-12,70.8,52.5,50.9,64.8,51.8,50.6,99,97,80,30.15,30.11,8,0,10,0.00
2013-1-13,73.8,65.0,59.0,63.8,60.4,57.0,96,86,67,30.13,30.02,14,4,28,0.00
2013-1-14,73.0,64.6,62.7,66.0,61.7,60.4,97,91,78,30.11,30.02,6,2,13,0.06
2013-1-15,64.6,59.3,49.2,61.0,57.8,47.8,97,95,88,30.12,30.03,3,0,10,0.01
2013-1-16,50.0,50.0,50.0,49.5,49.5,49.5,98,98,98,29.98,29.98,0,0,6,0.00
2013-1-17,50.1,45.1,41.7,49.8,44.6,41.2,99,98,98,29.88,29.75,4,2,8,1.55
2013-1-18,41.1,38.8,36.2,36.8,33.8,30.2,96,83,65,30.50,30.48,1,0,8,0.00
2013-1-19,55.0,54.1,53.4,32.9,31.9,30.5,45,43,39,30.26,30.25,8,6,10,0.00
2013-1-21,61.1,54.8,39.2,37.4,32.8,26.5,82,45,34,30.08,29.94,12,6,25,0.00
2013-1-22,45.1,35.8,28.7,22.2,18.2,15.5,67,50,34,30.24,30.05,6,1,15,0.00
2013-1-23,50.9,31.9,22.7,30.1,19.2,14.2,80,61,38,30.37,30.16,11,2,20,0.00
2013-1-24,52.7,46.6,38.4,39.4,31.9,12.4,77,60,20,30.36,30.02,15,6,26,0.00
2013-1-25,27.1,25.9,24.2,22.7,12.4,8.5,86,57,46,30.51,30.19,3,0,12,0.00
2013-1-28,50.7,46.2,38.0,46.3,39.5,30.6,93,78,67,30.46,30.28,7,1,10,0.00
2013-1-29,72.0,57.6,40.9,60.7,52.6,39.6,97,84,66,30.28,30.02,12,3,17,0.00
2013-1-30,73.7,65.3,49.2,64.3,60.3,46.1,95,84,68,30.02,29.43,19,11,30,0.80
2013-1-31,50.7,44.2,37.7,47.0,28.4,23.5,92,55,35,30.09,29.60,18,10,29,0.00